createdAt,value
2023-02-16T00:01:12.788Z,95.88
2023-02-16T00:03:39.298Z,94.45
2023-02-16T00:06:05.933Z,85.97
2023-02-16T00:08:32.356Z,91.78
2023-02-16T00:11:17.476Z,91.40
2023-02-16T00:13:52.720Z,91.78
2023-02-16T00:16:21.832Z,96.93
2023-02-16T00:18:48.689Z,93.90
2023-02-16T00:21:15.564Z,98.22
2023-02-16T00:23:42.087Z,87.70
2023-02-16T00:26:19.359Z,97.65
2023-02-16T00:28:46.306Z,85.22
2023-02-16T00:31:20.731Z,96.97
2023-02-16T00:33:47.867Z,87.93
2023-02-16T00:36:14.630Z,105.63
2023-02-16T00:38:41.127Z,97.95
2023-02-16T00:41:36.643Z,83.30
2023-02-16T00:44:03.146Z,80.90
2023-02-16T00:46:29.875Z,79.75
2023-02-16T00:48:56.496Z,71.47
2023-02-16T00:51:26.193Z,71.35
2023-02-16T00:53:52.891Z,68.32
2023-02-16T00:56:20.573Z,79.38
2023-02-16T00:58:50.613Z,81.07
2023-02-16T01:01:20.155Z,80.07
2023-02-16T01:03:46.698Z,78.28
2023-02-16T01:06:31.456Z,84.28
2023-02-16T01:09:32.570Z,75.30
2023-02-16T01:12:00.044Z,78.57
2023-02-16T01:14:26.548Z,79.90
2023-02-16T01:16:53.018Z,71.70
2023-02-16T01:19:19.645Z,81.68
2023-02-16T01:21:46.098Z,84.72
2023-02-16T01:24:12.510Z,78.43
2023-02-16T01:26:41.990Z,75.38
2023-02-16T01:29:15.447Z,77.47
2023-02-16T01:31:42.095Z,74.95
2023-02-16T01:34:08.707Z,74.03
2023-02-16T01:36:38.624Z,77.00
2023-02-16T01:39:05.845Z,82.03
2023-02-16T01:42:03.264Z,70.53
2023-02-16T01:44:45.561Z,85.90
2023-02-16T01:47:49.412Z,79.35
2023-02-16T01:50:23.073Z,75.20
2023-02-16T01:53:12.541Z,70.60
2023-02-16T01:55:45.263Z,71.93
2023-02-16T01:58:52.880Z,65.78
2023-02-16T02:01:41.736Z,74.32
2023-02-16T02:04:37.566Z,79.18
2023-02-16T02:07:04.176Z,89.75
2023-02-16T02:09:48.851Z,84.05
2023-02-16T02:12:37.338Z,76.30
2023-02-16T02:15:03.956Z,87.68
2023-02-16T02:17:30.525Z,85.82
2023-02-16T02:20:16.128Z,66.55
2023-02-16T02:23:22.965Z,80.00
2023-02-16T02:26:22.720Z,74.45
2023-02-16T02:28:57.770Z,72.75
2023-02-16T02:31:53.813Z,80.43
2023-02-16T02:34:28.547Z,72.32
2023-02-16T02:37:11.462Z,84.18
2023-02-16T02:39:58.641Z,79.65
2023-02-16T02:42:43.801Z,80.70
2023-02-16T02:45:17.150Z,78.75
2023-02-16T02:47:46.479Z,85.78
2023-02-16T02:50:38.936Z,87.47
2023-02-16T02:53:12.078Z,77.28
2023-02-16T02:56:07.213Z,75.82
2023-02-16T02:58:55.656Z,82.40
2023-02-16T03:01:23.634Z,81.72
2023-02-16T03:03:54.652Z,85.55
2023-02-16T03:06:28.294Z,85.25
2023-02-16T03:09:00.355Z,78.32
2023-02-16T03:11:48.200Z,68.28
2023-02-16T03:14:30.654Z,88.90
2023-02-16T03:17:30.338Z,66.78
2023-02-16T03:20:18.263Z,75.72
2023-02-16T03:23:03.405Z,75.68
2023-02-16T03:25:53.178Z,65.35
2023-02-16T03:28:41.089Z,81.85
2023-02-16T03:31:10.811Z,67.45
2023-02-16T03:33:38.130Z,86.43
2023-02-16T03:36:05.613Z,79.43
2023-02-16T03:38:32.351Z,66.85
2023-02-16T03:40:58.823Z,71.55
2023-02-16T03:43:27.626Z,76.35
2023-02-16T03:45:54.782Z,73.85
2023-02-16T03:48:21.544Z,64.65
2023-02-16T03:50:47.965Z,74.35
2023-02-16T03:53:15.106Z,72.43
2023-02-16T03:55:45.303Z,73.43
2023-02-16T03:58:14.603Z,78.40
2023-02-16T04:00:41.307Z,80.57
2023-02-16T04:03:10.812Z,75.75
2023-02-16T04:05:37.686Z,71.38
2023-02-16T04:08:05.263Z,71.15
2023-02-16T04:10:31.760Z,71.32
2023-02-16T04:12:58.329Z,70.25
2023-02-16T04:15:28.096Z,71.07
2023-02-16T04:17:55.035Z,77.05
2023-02-16T04:20:25.281Z,71.60
2023-02-16T04:22:52.389Z,64.13
2023-02-16T04:25:19.101Z,68.43
2023-02-16T04:27:46.331Z,71.88
2023-02-16T04:30:15.765Z,63.53
2023-02-16T04:32:42.279Z,76.80
2023-02-16T04:35:09.429Z,103.30
2023-02-16T04:37:36.143Z,73.95
2023-02-16T04:40:03.943Z,78.45
2023-02-16T04:42:30.331Z,66.63
2023-02-16T04:44:56.743Z,66.90
2023-02-16T04:47:25.792Z,65.30
2023-02-16T04:49:53.238Z,62.38
2023-02-16T04:52:20.195Z,62.47
2023-02-16T04:54:46.686Z,62.20
2023-02-16T04:57:13.150Z,64.93
2023-02-16T04:59:39.558Z,62.17
2023-02-16T05:02:06.039Z,70.82
2023-02-16T05:04:32.481Z,59.55
2023-02-16T05:06:59.136Z,62.92
2023-02-16T05:09:25.594Z,76.07
2023-02-16T05:12:10.361Z,63.17
2023-02-16T05:14:42.445Z,60.63
2023-02-16T05:17:16.303Z,64.15
2023-02-16T05:19:44.696Z,61.15
2023-02-16T05:22:11.156Z,59.97
2023-02-16T05:24:38.085Z,63.05
2023-02-16T05:27:06.952Z,63.28
2023-02-16T05:29:34.065Z,64.45
2023-02-16T05:32:03.326Z,72.10
2023-02-16T05:34:31.117Z,54.50
2023-02-16T05:36:57.557Z,63.58
2023-02-16T05:39:24.029Z,58.90
2023-02-16T05:41:50.578Z,62.05
2023-02-16T05:44:17.371Z,69.97
2023-02-16T05:46:43.822Z,76.43
2023-02-16T05:49:10.863Z,76.82
2023-02-16T05:51:37.545Z,80.78
2023-02-16T05:54:04.746Z,69.40
2023-02-16T05:56:31.813Z,70.78
2023-02-16T05:58:59.877Z,70.85
2023-02-16T06:01:27.149Z,63.92
2023-02-16T06:03:53.619Z,66.97
2023-02-16T06:06:20.321Z,71.47
2023-02-16T06:08:46.777Z,66.30
2023-02-16T06:11:32.033Z,72.38
2023-02-16T06:13:59.614Z,70.13
2023-02-16T06:16:27.773Z,70.45
2023-02-16T06:18:54.855Z,77.38
2023-02-16T06:21:22.142Z,69.75
2023-02-16T06:23:48.612Z,65.50
2023-02-16T06:26:15.698Z,77.65
2023-02-16T06:28:42.241Z,64.57
2023-02-16T06:31:08.856Z,64.25
2023-02-16T06:33:35.404Z,68.30
2023-02-16T06:36:01.825Z,67.60
2023-02-16T06:38:28.222Z,71.30
2023-02-16T06:40:54.985Z,68.40
2023-02-16T06:43:21.535Z,79.60
2023-02-16T06:45:49.847Z,66.53
2023-02-16T06:48:16.307Z,76.13
2023-02-16T06:50:42.700Z,74.55
2023-02-16T06:53:09.202Z,67.35
2023-02-16T06:55:36.829Z,92.00
2023-02-16T06:58:07.322Z,70.55
2023-02-16T07:00:34.519Z,76.18
2023-02-16T07:03:01.333Z,69.53
2023-02-16T07:05:27.815Z,77.93
2023-02-16T07:07:54.283Z,69.53
2023-02-16T07:10:20.848Z,72.28
2023-02-16T07:12:47.993Z,72.40
2023-02-16T07:15:14.421Z,65.03
2023-02-16T07:17:41.014Z,67.13
2023-02-16T07:20:08.097Z,71.38
2023-02-16T07:22:34.583Z,82.65
2023-02-16T07:25:01.038Z,77.13
2023-02-16T07:27:27.715Z,91.90
2023-02-16T07:29:54.200Z,101.45
2023-02-16T07:32:20.795Z,136.55
2023-02-16T07:34:47.283Z,122.47
2023-02-16T07:37:13.689Z,97.28
2023-02-16T07:39:40.164Z,102.40
2023-02-16T07:42:06.592Z,91.97
2023-02-16T07:44:32.998Z,78.97
2023-02-16T07:46:59.396Z,112.25
2023-02-16T07:49:25.866Z,94.55
2023-02-16T07:51:52.289Z,92.07
2023-02-16T07:54:18.687Z,93.30
2023-02-16T07:56:45.223Z,81.93
2023-02-16T07:59:11.760Z,94.45
2023-02-16T08:01:38.226Z,84.95
2023-02-16T08:04:04.841Z,89.10
2023-02-16T08:06:31.313Z,90.35
2023-02-16T08:08:57.804Z,75.95
2023-02-16T08:11:25.546Z,74.75
2023-02-16T08:13:52.473Z,75.07
2023-02-16T08:16:24.350Z,67.95
2023-02-16T08:18:52.180Z,71.03
2023-02-16T08:21:21.720Z,76.72
2023-02-16T08:23:54.367Z,67.10
2023-02-16T08:26:21.931Z,55.55
2023-02-16T08:28:50.123Z,67.00
2023-02-16T08:31:23.123Z,61.95
2023-02-16T08:33:53.965Z,56.92
2023-02-16T08:36:32.961Z,72.00
2023-02-16T08:39:00.968Z,63.88
2023-02-16T08:41:33.452Z,56.58
2023-02-16T08:44:00.870Z,61.92
2023-02-16T08:46:32.344Z,57.28
2023-02-16T08:49:00.374Z,47.13
2023-02-16T08:51:29.361Z,61.10
2023-02-16T08:53:58.745Z,53.58
2023-02-16T08:56:25.917Z,57.30
2023-02-16T08:58:52.615Z,48.03
2023-02-16T09:01:19.170Z,61.38
2023-02-16T09:03:46.241Z,54.40
2023-02-16T09:06:15.249Z,60.47
2023-02-16T09:08:41.986Z,65.28
2023-02-16T09:11:12.834Z,61.72
2023-02-16T09:13:40.969Z,66.68
2023-02-16T09:16:10.462Z,74.63
2023-02-16T09:18:38.581Z,64.95
2023-02-16T09:21:07.321Z,63.33
2023-02-16T09:23:35.522Z,56.33
2023-02-16T09:26:02.834Z,62.08
2023-02-16T09:28:30.699Z,78.03
2023-02-16T09:30:57.345Z,54.90
2023-02-16T09:33:23.943Z,65.03
2023-02-16T09:35:50.561Z,64.60
2023-02-16T09:38:17.720Z,59.10
2023-02-16T09:40:44.633Z,67.45
2023-02-16T09:43:20.032Z,72.65
2023-02-16T09:45:50.661Z,74.32
2023-02-16T09:48:30.414Z,74.67
2023-02-16T09:51:00.535Z,76.90
2023-02-16T09:53:41.602Z,67.68
2023-02-16T09:56:17.271Z,60.30
2023-02-16T09:59:05.598Z,68.22
2023-02-16T10:01:50.476Z,66.22
2023-02-16T10:04:46.085Z,60.55
2023-02-16T10:07:31.948Z,60.15
2023-02-16T10:10:01.025Z,58.33
2023-02-16T10:12:37.307Z,67.47
2023-02-16T10:15:08.585Z,59.38
2023-02-16T10:17:38.378Z,63.15
2023-02-16T10:20:09.393Z,55.70
2023-02-16T10:23:20.788Z,59.38
2023-02-16T10:25:50.250Z,59.53
2023-02-16T10:28:22.705Z,55.30
2023-02-16T10:31:06.122Z,61.22
2023-02-16T10:33:50.884Z,48.72
2023-02-16T10:36:51.766Z,51.95
2023-02-16T10:39:42.987Z,45.63
2023-02-16T10:42:34.283Z,57.80
2023-02-16T10:45:20.384Z,58.70
2023-02-16T10:47:47.297Z,52.95
2023-02-16T10:50:38.809Z,53.28
2023-02-16T10:53:12.797Z,46.53
2023-02-16T10:55:39.272Z,50.20
2023-02-16T10:58:16.888Z,44.20
2023-02-16T11:00:58.471Z,51.50
2023-02-16T11:05:56.013Z,47.40
2023-02-16T11:08:25.165Z,44.60
2023-02-16T11:10:53.906Z,44.55
2023-02-16T11:13:36.865Z,42.85
2023-02-16T11:16:10.694Z,46.25
2023-02-16T11:18:40.611Z,41.95
2023-02-16T11:21:08.319Z,43.45
2023-02-16T11:23:36.249Z,49.13
2023-02-16T11:26:11.759Z,44.60
2023-02-16T11:28:40.931Z,45.28
2023-02-16T11:31:19.668Z,41.50
2023-02-16T11:33:58.135Z,50.92
2023-02-16T11:36:40.384Z,44.35
2023-02-16T11:39:20.597Z,48.15
2023-02-16T11:41:56.804Z,46.80
2023-02-16T11:44:38.320Z,44.42
2023-02-16T11:49:50.182Z,42.35
2023-02-16T11:52:29.502Z,42.65
2023-02-16T11:54:58.745Z,40.97
2023-02-16T11:57:31.725Z,45.42
2023-02-16T12:00:00.402Z,44.35
2023-02-16T12:02:29.495Z,40.78
2023-02-16T12:05:10.571Z,51.55
2023-02-16T12:07:50.948Z,36.63
2023-02-16T12:10:23.077Z,36.83
2023-02-16T12:13:16.009Z,40.55
2023-02-16T12:15:49.854Z,41.22
2023-02-16T12:18:36.949Z,35.33
2023-02-16T12:21:06.910Z,37.17
2023-02-16T12:23:53.800Z,37.80
2023-02-16T12:26:35.285Z,45.42
2023-02-16T12:32:12.179Z,31.75
2023-02-16T12:34:38.688Z,46.05
2023-02-16T12:37:49.897Z,35.55
2023-02-16T12:40:44.452Z,35.65
2023-02-16T12:43:28.040Z,34.40
2023-02-16T12:45:56.584Z,43.80
2023-02-16T12:49:12.158Z,37.35
2023-02-16T12:51:45.718Z,40.80
2023-02-16T12:54:23.460Z,39.22
2023-02-16T12:57:01.805Z,33.33
2023-02-16T12:59:56.592Z,43.42
2023-02-16T13:02:37.042Z,35.22
2023-02-16T13:05:12.810Z,38.20
2023-02-16T13:07:47.032Z,34.08
2023-02-16T13:11:00.678Z,31.33
2023-02-16T13:13:32.049Z,38.15
2023-02-16T13:18:59.870Z,36.70
2023-02-16T13:21:52.636Z,33.28
2023-02-16T13:24:24.935Z,38.08
2023-02-16T13:27:01.132Z,30.92
2023-02-16T13:29:45.194Z,35.55
2023-02-16T13:32:24.716Z,32.03
2023-02-16T13:35:12.641Z,34.00
2023-02-16T13:37:56.345Z,35.17
2023-02-16T13:40:36.249Z,34.03
2023-02-16T13:43:15.608Z,35.72
2023-02-16T13:45:46.746Z,34.00
2023-02-16T13:48:24.378Z,28.70
2023-02-16T13:51:03.818Z,32.05
2023-02-16T13:53:37.876Z,36.10
2023-02-16T13:56:31.472Z,30.48
2023-02-16T13:59:18.384Z,47.72
2023-02-16T14:01:46.786Z,37.55
2023-02-16T14:04:33.312Z,36.97
2023-02-16T14:07:03.085Z,36.85
2023-02-16T14:09:39.634Z,28.73
2023-02-16T14:12:09.344Z,31.58
2023-02-16T14:14:56.458Z,28.70
2023-02-16T14:17:32.809Z,34.25
2023-02-16T14:20:05.141Z,34.20
2023-02-16T14:22:46.621Z,31.30
2023-02-16T14:25:22.238Z,28.50
2023-02-16T14:27:54.513Z,31.95
2023-02-16T14:30:30.136Z,31.88
2023-02-16T14:33:16.765Z,35.13
2023-02-16T14:35:58.426Z,30.80
2023-02-16T14:38:29.060Z,36.80
2023-02-16T14:40:57.814Z,33.80
2023-02-16T14:43:33.139Z,29.02
2023-02-16T14:46:12.735Z,28.15
2023-02-16T14:48:45.041Z,26.60
2023-02-16T14:51:34.567Z,32.88
2023-02-16T14:54:27.433Z,28.92
2023-02-16T14:57:00.288Z,28.10
2023-02-16T14:59:32.838Z,29.98
2023-02-16T15:01:59.324Z,29.73
2023-02-16T15:04:33.564Z,35.30
2023-02-16T15:07:03.828Z,31.45
2023-02-16T15:09:33.319Z,26.27
2023-02-16T15:12:22.754Z,29.38
2023-02-16T15:15:01.872Z,29.65
2023-02-16T15:17:35.493Z,26.10
2023-02-16T15:20:17.724Z,29.65
2023-02-16T15:22:58.038Z,31.42
2023-02-16T15:25:26.778Z,24.30
2023-02-16T15:28:00.163Z,23.73
2023-02-16T15:30:32.152Z,22.00
2023-02-16T15:33:04.705Z,27.67
2023-02-16T15:35:34.637Z,43.17
2023-02-16T15:38:26.870Z,27.83
2023-02-16T15:41:05.392Z,24.58
2023-02-16T15:43:44.371Z,24.83
2023-02-16T15:46:23.230Z,30.05
2023-02-16T15:48:52.674Z,27.15
2023-02-16T15:51:34.756Z,29.50
2023-02-16T15:54:03.582Z,26.80
2023-02-16T15:56:47.246Z,32.15
2023-02-16T15:59:30.273Z,35.03
2023-02-16T16:02:04.735Z,34.28
2023-02-16T16:04:31.536Z,43.80
2023-02-16T16:06:59.996Z,42.75
2023-02-16T16:09:32.985Z,37.42
2023-02-16T16:12:12.035Z,38.53
2023-02-16T16:14:49.955Z,49.28
2023-02-16T16:17:20.672Z,54.90
2023-02-16T16:19:47.085Z,46.47
2023-02-16T16:22:39.682Z,47.15
2023-02-16T16:25:39.666Z,39.85
2023-02-16T16:28:08.764Z,42.30
2023-02-16T16:30:43.595Z,39.33
2023-02-16T16:33:13.919Z,40.63
2023-02-16T16:35:43.063Z,54.63
2023-02-16T16:38:27.062Z,41.75
2023-02-16T16:40:55.943Z,44.22
2023-02-16T16:43:29.683Z,45.25
2023-02-16T16:46:08.382Z,44.30
2023-02-16T16:48:37.122Z,39.55
2023-02-16T16:51:12.643Z,52.05
2023-02-16T16:54:04.017Z,44.45
2023-02-16T16:56:34.968Z,49.63
2023-02-16T16:59:01.466Z,51.33
2023-02-16T17:01:29.442Z,43.80
2023-02-16T17:03:56.591Z,45.47
2023-02-16T17:06:24.235Z,38.92
2023-02-16T17:08:50.953Z,44.13
2023-02-16T17:11:28.687Z,51.33
2023-02-16T17:13:57.242Z,46.78
2023-02-16T17:16:28.629Z,40.38
2023-02-16T17:21:21.553Z,54.78
2023-02-16T17:23:53.244Z,48.10
2023-02-16T17:26:20.288Z,48.42
2023-02-16T17:28:46.773Z,48.80
2023-02-16T17:31:13.186Z,46.70
2023-02-16T17:33:39.668Z,45.20
2023-02-16T17:36:08.118Z,49.08
2023-02-16T17:38:34.707Z,47.35
2023-02-16T17:41:01.153Z,50.53
2023-02-16T17:43:28.100Z,51.75
2023-02-16T17:45:56.785Z,54.60
2023-02-16T17:48:33.103Z,44.30
2023-02-16T17:50:59.642Z,41.75
2023-02-16T17:53:27.300Z,49.63
2023-02-16T17:55:56.158Z,42.17
2023-02-16T17:58:24.214Z,44.45
2023-02-16T18:00:51.243Z,43.88
2023-02-16T18:03:18.809Z,55.55
2023-02-16T18:05:45.371Z,62.55
2023-02-16T18:08:12.841Z,62.05
2023-02-16T18:10:44.374Z,62.95
2023-02-16T18:13:12.243Z,48.33
2023-02-16T18:15:45.640Z,55.33
2023-02-16T18:18:13.446Z,76.53
2023-02-16T18:20:40.727Z,90.38
2023-02-16T18:23:07.441Z,100.55
2023-02-16T18:25:34.465Z,109.93
2023-02-16T18:28:00.937Z,101.57
2023-02-16T18:30:27.477Z,93.57
2023-02-16T18:32:53.970Z,83.20
2023-02-16T18:35:20.687Z,78.90
2023-02-16T18:37:47.682Z,72.72
2023-02-16T18:40:19.538Z,73.38
2023-02-16T18:42:47.026Z,74.55
2023-02-16T18:45:13.569Z,73.35
2023-02-16T18:47:39.950Z,63.22
2023-02-16T18:50:06.893Z,66.03
2023-02-16T18:52:33.329Z,68.53
2023-02-16T18:54:59.933Z,64.82
2023-02-16T18:57:26.431Z,62.08
2023-02-16T18:59:52.869Z,73.28
2023-02-16T19:02:19.468Z,55.67
2023-02-16T19:04:45.983Z,64.57
2023-02-16T19:07:12.459Z,75.00
2023-02-16T19:09:38.866Z,68.10
2023-02-16T19:12:05.439Z,55.92
2023-02-16T19:14:31.964Z,58.72
2023-02-16T19:16:58.365Z,57.75
2023-02-16T19:19:24.860Z,66.88
2023-02-16T19:21:51.316Z,62.13
2023-02-16T19:24:17.744Z,60.83
2023-02-16T19:26:44.389Z,58.25
2023-02-16T19:29:12.761Z,74.57
2023-02-16T19:31:39.782Z,69.05
2023-02-16T19:34:06.519Z,57.33
2023-02-16T19:36:34.105Z,59.90
2023-02-16T19:39:01.866Z,54.00
2023-02-16T19:41:31.763Z,56.95
2023-02-16T19:43:58.488Z,60.67
2023-02-16T19:46:26.184Z,60.30
2023-02-16T19:48:55.527Z,57.03
2023-02-16T19:51:22.166Z,55.53
2023-02-16T19:53:50.426Z,55.55
2023-02-16T19:56:20.353Z,71.90
2023-02-16T19:58:47.762Z,56.97
2023-02-16T20:01:19.866Z,57.55
2023-02-16T20:03:47.364Z,59.63
2023-02-16T20:06:17.756Z,60.95
2023-02-16T20:08:45.165Z,63.88
2023-02-16T20:11:11.950Z,70.57
2023-02-16T20:13:38.738Z,57.63
2023-02-16T20:16:08.106Z,73.80
2023-02-16T20:18:35.332Z,63.88
2023-02-16T20:21:22.966Z,64.43
2023-02-16T20:23:51.716Z,63.67
2023-02-16T20:26:33.601Z,65.60
2023-02-16T20:29:00.644Z,58.55
2023-02-16T20:31:43.073Z,56.50
2023-02-16T20:34:09.664Z,55.22
2023-02-16T20:36:37.154Z,57.85
2023-02-16T20:39:06.069Z,51.72
2023-02-16T20:41:32.558Z,58.60
2023-02-16T20:43:58.989Z,53.13
2023-02-16T20:46:26.050Z,55.13
2023-02-16T20:48:52.606Z,58.97
2023-02-16T20:51:19.863Z,59.25
2023-02-16T20:53:46.511Z,54.47
2023-02-16T20:56:22.778Z,58.10
2023-02-16T20:58:52.107Z,57.10
2023-02-16T21:01:22.972Z,60.33
2023-02-16T21:03:51.037Z,57.97
2023-02-16T21:06:18.207Z,47.88
2023-02-16T21:08:44.889Z,56.97
2023-02-16T21:11:11.536Z,42.75
2023-02-16T21:13:38.934Z,42.83
2023-02-16T21:16:07.161Z,45.33
2023-02-16T21:18:35.030Z,50.50
2023-02-16T21:21:01.693Z,52.25
2023-02-16T21:23:28.505Z,47.47
2023-02-16T21:25:59.798Z,49.28
2023-02-16T21:28:27.463Z,41.72
2023-02-16T21:30:54.208Z,45.60
2023-02-16T21:33:20.895Z,43.88
2023-02-16T21:35:47.537Z,41.35
2023-02-16T21:38:14.128Z,42.83
2023-02-16T21:40:59.302Z,38.30
2023-02-16T21:43:25.737Z,41.90
2023-02-16T21:46:00.180Z,44.90
2023-02-16T21:48:45.160Z,51.13
2023-02-16T21:51:13.859Z,40.05
2023-02-16T21:53:40.343Z,46.85
2023-02-16T21:56:17.118Z,37.95
2023-02-16T21:58:44.154Z,36.72
2023-02-16T22:01:10.709Z,47.05
2023-02-16T22:03:37.202Z,46.45
2023-02-16T22:06:05.283Z,40.97
2023-02-16T22:08:34.282Z,39.85
2023-02-16T22:11:08.544Z,39.30
2023-02-16T22:13:36.786Z,37.20
2023-02-16T22:16:12.025Z,46.60
2023-02-16T22:18:39.528Z,42.22
2023-02-16T22:21:07.123Z,39.80
2023-02-16T22:23:33.524Z,33.17
2023-02-16T22:26:00.194Z,45.58
2023-02-16T22:28:26.636Z,30.92
2023-02-16T22:30:53.084Z,36.17
2023-02-16T22:33:19.490Z,41.95
2023-02-16T22:35:45.870Z,37.15
2023-02-16T22:38:12.290Z,37.15
2023-02-16T22:40:38.704Z,35.05
2023-02-16T22:43:05.154Z,41.17
2023-02-16T22:45:31.650Z,31.27
2023-02-16T22:47:58.034Z,39.13
2023-02-16T22:50:24.487Z,31.15
2023-02-16T22:52:52.979Z,30.80
2023-02-16T22:55:19.369Z,34.08
2023-02-16T22:57:45.871Z,37.92
2023-02-16T23:00:16.528Z,32.72
2023-02-16T23:02:43.183Z,30.67
2023-02-16T23:05:09.591Z,30.77
2023-02-16T23:07:36.090Z,33.95
2023-02-16T23:10:02.563Z,32.45
2023-02-16T23:12:29.007Z,36.95
2023-02-16T23:14:55.544Z,27.85
2023-02-16T23:17:21.988Z,27.35
2023-02-16T23:19:50.606Z,30.88
2023-02-16T23:22:17.012Z,37.83
2023-02-16T23:24:43.512Z,30.63
2023-02-16T23:27:09.924Z,30.08
2023-02-16T23:29:36.350Z,31.88
2023-02-16T23:32:05.596Z,32.88
2023-02-16T23:34:32.093Z,34.25
2023-02-16T23:36:58.510Z,30.27
2023-02-16T23:39:24.961Z,31.17
2023-02-16T23:41:51.386Z,34.90
2023-02-16T23:44:17.776Z,34.15
2023-02-16T23:46:44.232Z,35.78
2023-02-16T23:49:10.790Z,31.60
2023-02-16T23:51:37.224Z,34.58
2023-02-16T23:54:03.782Z,36.03
2023-02-16T23:56:30.311Z,33.88
2023-02-16T23:58:58.800Z,37.03
